Time;durP1;ratioP1;P1;durP2;ratioP2;P2;SDS_P1;SDS_P2;PMS_P1;PMS_P2;Temp;Humidity;BMP_temperature;BMP_pressure;BME280_temperature;BME280_humidity;BME280_pressure;Samples;Min_cycle;Max_cycle;Signal;HPM_P1;HPM_P2
2021/10/22 00:00:44;;;;;;;0.13;0.10;;;;;;;6.87;100.00;92904.59;2090873;28;20024;-89
2021/10/22 00:01:45;;;;;;;0.22;0.10;;;;;;;6.90;100.00;92903.81;2090814;28;20063;-90
2021/10/22 00:02:46;;;;;;;0.10;0.10;;;;;;;6.89;100.00;92912.16;2115798;28;20095;-89
2021/10/22 00:03:47;;;;;;;0.20;0.10;;;;;;;6.91;100.00;92907.97;2107478;28;20016;-86
2021/10/22 00:04:48;;;;;;;0.30;0.20;;;;;;;6.92;100.00;92900.75;2107982;28;20024;-86
2021/10/22 00:05:50;;;;;;;0.20;0.20;;;;;;;7.10;100.00;92913.81;2107430;28;20032;-87
2021/10/22 00:06:55;;;;;;;0.68;0.10;;;;;;;6.98;100.00;92907.88;2099595;28;20020;-88
2021/10/22 00:07:56;;;;;;;0.10;0.10;;;;;;;6.90;100.00;92911.78;2091434;28;20032;-88
2021/10/22 00:08:57;;;;;;;0.10;0.10;;;;;;;6.89;100.00;92915.59;2106984;28;20044;-87
2021/10/22 00:09:58;;;;;;;0.10;0.10;;;;;;;6.78;100.00;92905.06;2107299;28;20048;-89
2021/10/22 00:10:59;;;;;;;0.10;0.10;;;;;;;6.97;100.00;92911.69;2098976;28;20028;-87
2021/10/22 00:12:00;;;;;;;0.20;0.20;;;;;;;6.90;100.00;92913.69;2099013;28;20039;-89
2021/10/22 00:13:03;;;;;;;0.10;0.10;;;;;;;6.92;100.00;92906.81;2090893;28;20056;-88
2021/10/22 00:14:04;;;;;;;0.10;0.10;;;;;;;6.93;100.00;92913.63;2107662;27;20550;-88
2021/10/22 00:15:08;;;;;;;0.65;0.10;;;;;;;6.95;100.00;92911.34;2106472;28;20024;-87
2021/10/22 00:16:09;;;;;;;0.10;0.10;;;;;;;6.85;100.00;92911.44;2099822;28;20385;-88
2021/10/22 00:17:10;;;;;;;0.03;0.03;;;;;;;6.87;100.00;92911.81;2107245;28;20020;-86
2021/10/22 00:18:11;;;;;;;0.10;0.10;;;;;;;6.96;100.00;92912.84;2107179;28;20031;-88
2021/10/22 00:19:13;;;;;;;0.10;0.10;;;;;;;6.85;100.00;92914.88;2107497;28;20031;-89
2021/10/22 00:20:14;;;;;;;0.10;0.10;;;;;;;6.85;100.00;92912.22;2098831;28;20020;-88
2021/10/22 00:21:15;;;;;;;0.15;0.10;;;;;;;6.79;100.00;92921.75;2107450;28;20039;-88
2021/10/22 00:22:16;;;;;;;0.10;0.10;;;;;;;6.84;100.00;92916.00;2115478;28;20035;-87
2021/10/22 00:23:17;;;;;;;0.10;0.10;;;;;;;6.91;100.00;92918.59;2099156;28;20054;-89
2021/10/22 00:24:18;;;;;;;0.52;0.10;;;;;;;6.90;100.00;92921.66;2107174;28;21600;-90
2021/10/22 00:25:19;;;;;;;0.10;0.10;;;;;;;6.80;100.00;92920.59;2107312;28;20023;-87
2021/10/22 00:26:20;;;;;;;0.10;0.10;;;;;;;6.81;100.00;92912.25;2107226;28;20129;-89
2021/10/22 00:27:21;;;;;;;0.10;0.10;;;;;;;6.91;100.00;92920.50;2107251;28;20020;-87
2021/10/22 00:28:22;;;;;;;0.10;0.10;;;;;;;6.97;100.00;92921.56;2107395;28;20585;-89
2021/10/22 00:29:23;;;;;;;0.10;0.10;;;;;;;6.83;100.00;92922.47;2098885;28;20082;-88
2021/10/22 00:30:24;;;;;;;0.10;0.10;;;;;;;6.82;100.00;92926.28;2105902;28;20046;-90
2021/10/22 00:31:25;;;;;;;0.10;0.10;;;;;;;6.85;100.00;92925.50;2098341;28;20020;-87
2021/10/22 00:32:27;;;;;;;0.20;0.17;;;;;;;6.73;100.00;92929.41;2091288;28;20116;-90
2021/10/22 00:33:28;;;;;;;0.10;0.10;;;;;;;6.70;100.00;92934.75;2099112;28;20056;-91
2021/10/22 00:34:30;;;;;;;0.32;0.10;;;;;;;6.73;100.00;92931.31;2106498;28;20016;-90
2021/10/22 00:35:31;;;;;;;0.10;0.10;;;;;;;6.71;100.00;92933.59;2099268;28;20029;-89
2021/10/22 00:36:32;;;;;;;0.13;0.13;;;;;;;6.69;100.00;92934.00;2107041;28;20035;-88
2021/10/22 00:37:33;;;;;;;0.10;0.10;;;;;;;6.74;100.00;92925.59;2107086;28;20490;-89
2021/10/22 00:38:35;;;;;;;0.10;0.10;;;;;;;6.70;100.00;92930.19;2114428;28;20035;-90
2021/10/22 00:39:36;;;;;;;0.32;0.20;;;;;;;6.84;100.00;92931.19;2107213;28;20036;-88
2021/10/22 00:40:37;;;;;;;0.20;0.20;;;;;;;6.82;100.00;92935.00;2098951;28;20021;-91
2021/10/22 00:41:41;;;;;;;0.10;0.10;;;;;;;6.78;100.00;92941.50;2098864;28;20021;-90
2021/10/22 00:42:43;;;;;;;0.10;0.10;;;;;;;6.76;100.00;92933.94;2106899;27;20424;-88
2021/10/22 00:43:45;;;;;;;0.28;0.20;;;;;;;6.79;100.00;92938.44;2107174;28;20024;-90
2021/10/22 00:44:48;;;;;;;0.65;0.20;;;;;;;6.74;100.00;92938.13;2114927;28;20100;-91
2021/10/22 00:45:51;;;;;;;0.20;0.20;;;;;;;6.63;100.00;92942.78;2107235;28;20069;-89
2021/10/22 00:46:55;;;;;;;0.10;0.10;;;;;;;6.62;100.00;92933.31;2098908;28;20111;-89
2021/10/22 00:47:56;;;;;;;0.20;0.20;;;;;;;6.60;100.00;92941.69;2107574;28;20023;-90
2021/10/22 00:48:58;;;;;;;0.10;0.10;;;;;;;6.72;100.00;92941.19;2098663;28;20029;-90
2021/10/22 00:49:58;;;;;;;0.10;0.10;;;;;;;6.58;100.00;92941.31;2090845;28;20477;-89
2021/10/22 00:51:01;;;;;;;0.10;0.10;;;;;;;6.60;100.00;92951.56;2107054;28;20103;-91
2021/10/22 00:52:02;;;;;;;0.10;0.10;;;;;;;6.67;100.00;92944.28;2115798;27;20027;-87
2021/10/22 00:53:04;;;;;;;0.20;0.20;;;;;;;6.69;100.00;92943.88;2098901;28;20020;-89
2021/10/22 00:54:08;;;;;;;0.30;0.30;;;;;;;6.70;100.00;92943.47;2095289;28;20016;-88
2021/10/22 00:55:11;;;;;;;0.20;0.20;;;;;;;6.66;100.00;92944.66;2091394;28;20585;-89
2021/10/22 00:56:13;;;;;;;0.50;0.20;;;;;;;6.61;100.00;92937.88;2099463;28;20028;-88
2021/10/22 00:57:14;;;;;;;0.10;0.10;;;;;;;6.68;100.00;92937.81;2098410;28;20836;-88
2021/10/22 00:58:15;;;;;;;0.40;0.40;;;;;;;6.53;100.00;92936.44;2108131;28;20115;-89
2021/10/22 00:59:16;;;;;;;0.63;0.20;;;;;;;6.69;100.00;92941.97;2109918;28;20038;-86
2021/10/22 01:00:20;;;;;;;0.28;0.20;;;;;;;6.55;100.00;92942.88;2102450;27;20024;-87
2021/10/22 01:01:21;;;;;;;0.20;0.20;;;;;;;6.49;100.00;92947.06;2107597;28;20025;-87
2021/10/22 01:02:22;;;;;;;0.43;0.30;;;;;;;6.60;100.00;92952.31;2109068;28;20028;-88
2021/10/22 01:03:27;;;;;;;0.20;0.20;;;;;;;6.51;100.00;92954.66;2100519;28;20025;-89
2021/10/22 01:04:28;;;;;;;0.63;0.30;;;;;;;6.55;100.00;92944.78;2090891;28;20108;-89
2021/10/22 01:05:29;;;;;;;0.20;0.20;;;;;;;6.65;100.00;92949.22;2094235;28;20027;-87
2021/10/22 01:06:30;;;;;;;0.20;0.20;;;;;;;6.45;100.00;92951.69;2097361;28;20028;-88
2021/10/22 01:07:33;;;;;;;1.10;0.30;;;;;;;6.65;100.00;92956.44;2090269;28;20083;-90
2021/10/22 01:08:38;;;;;;;0.20;0.20;;;;;;;6.43;100.00;92951.31;2092745;28;20116;-88
2021/10/22 01:09:39;;;;;;;0.20;0.20;;;;;;;6.31;100.00;92951.78;2100630;28;20426;-88
2021/10/22 01:10:40;;;;;;;3.83;0.35;;;;;;;6.29;100.00;92948.78;2107086;28;20419;-90
2021/10/22 01:11:41;;;;;;;0.20;0.20;;;;;;;6.27;100.00;92961.69;2097407;28;20044;-87
2021/10/22 01:12:43;;;;;;;0.30;0.30;;;;;;;6.24;100.00;92951.88;2090322;28;20068;-89
2021/10/22 01:13:44;;;;;;;0.30;0.30;;;;;;;6.28;100.00;92958.66;2098730;28;20048;-88
2021/10/22 01:14:47;;;;;;;0.70;0.30;;;;;;;6.32;100.00;92958.59;2107263;28;20053;-86
2021/10/22 01:15:48;;;;;;;0.30;0.30;;;;;;;6.25;100.00;92954.13;2106874;28;20016;-87
2021/10/22 01:16:49;;;;;;;0.25;0.25;;;;;;;6.28;100.00;92963.22;2106922;28;20020;-88
2021/10/22 01:17:51;;;;;;;0.32;0.32;;;;;;;6.31;100.00;92967.72;2105365;28;20110;-89
2021/10/22 01:18:52;;;;;;;1.45;0.40;;;;;;;6.20;100.00;92965.16;2106719;28;20050;-88
2021/10/22 01:19:52;;;;;;;0.40;0.40;;;;;;;6.26;100.00;92960.19;2100033;28;20020;-89
2021/10/22 01:21:11;;;;;;;0.30;0.30;;;;;;;6.21;100.00;92955.28;2099790;28;20024;-88
2021/10/22 01:22:14;;;;;;;0.30;0.30;;;;;;;6.07;100.00;92958.81;2106155;28;20024;-88
2021/10/22 01:23:15;;;;;;;0.38;0.38;;;;;;;6.00;100.00;92962.25;2106088;28;20020;-87
2021/10/22 01:24:17;;;;;;;0.43;0.40;;;;;;;6.08;100.00;92967.53;2091261;28;20032;-89
2021/10/22 01:25:25;;;;;;;0.25;0.25;;;;;;;6.22;100.00;92967.41;2090410;28;20036;-86
2021/10/22 01:26:26;;;;;;;0.30;0.30;;;;;;;6.28;100.00;92960.56;2098791;28;20024;-90
2021/10/22 01:27:27;;;;;;;0.43;0.40;;;;;;;6.12;100.00;92965.59;2098449;28;20028;-88
2021/10/22 01:28:29;;;;;;;0.30;0.30;;;;;;;6.08;100.00;92962.22;2094189;28;20072;-89
2021/10/22 01:29:30;;;;;;;0.60;0.40;;;;;;;6.13;100.00;92959.16;2098889;28;20082;-89
2021/10/22 01:30:31;;;;;;;0.63;0.38;;;;;;;6.07;100.00;92964.13;2102577;28;20016;-91
2021/10/22 01:31:32;;;;;;;0.30;0.30;;;;;;;6.04;100.00;92963.00;2106766;28;20035;-89
2021/10/22 01:32:34;;;;;;;0.40;0.40;;;;;;;6.03;100.00;92964.13;2106682;28;20393;-90
2021/10/22 01:33:38;;;;;;;0.47;0.47;;;;;;;6.00;100.00;92962.25;2098932;28;20033;-88
2021/10/22 01:34:39;;;;;;;0.57;0.40;;;;;;;5.87;100.00;92961.19;2094603;28;20024;-88
2021/10/22 01:35:40;;;;;;;0.60;0.40;;;;;;;5.79;100.00;92960.50;2098401;28;20470;-88
2021/10/22 01:36:42;;;;;;;0.95;0.40;;;;;;;5.83;100.00;92955.16;2100768;28;20035;-90
2021/10/22 01:37:42;;;;;;;1.80;0.50;;;;;;;5.89;100.00;92955.50;2098442;28;20028;-88
2021/10/22 01:38:44;;;;;;;0.30;0.30;;;;;;;5.84;100.00;92954.03;2093756;28;20025;-90
2021/10/22 01:39:45;;;;;;;0.52;0.40;;;;;;;5.86;100.00;92959.69;2098536;28;20020;-89
2021/10/22 01:40:46;;;;;;;0.70;0.40;;;;;;;5.87;100.00;92961.19;2098441;28;20035;-88
2021/10/22 01:41:47;;;;;;;1.02;0.60;;;;;;;5.86;100.00;92954.38;2090281;28;20379;-91
2021/10/22 01:42:49;;;;;;;1.63;0.52;;;;;;;5.80;100.00;92961.25;2104822;28;20035;-89
2021/10/22 01:43:50;;;;;;;1.65;0.55;;;;;;;5.69;100.00;92963.19;2115391;28;20053;-87
2021/10/22 01:44:51;;;;;;;1.15;0.60;;;;;;;5.71;100.00;92960.94;2102520;28;20633;-88
2021/10/22 01:45:53;;;;;;;1.15;0.55;;;;;;;5.69;100.00;92956.00;2098637;28;20035;-87
2021/10/22 01:46:55;;;;;;;0.98;0.65;;;;;;;5.70;100.00;92959.41;2113853;28;20415;-89
2021/10/22 01:47:56;;;;;;;0.93;0.65;;;;;;;5.59;100.00;92959.47;2106789;28;20499;-88
2021/10/22 01:48:57;;;;;;;0.90;0.60;;;;;;;5.56;100.00;92960.97;2094181;28;20071;-89
2021/10/22 01:49:58;;;;;;;2.05;0.63;;;;;;;5.59;100.00;92956.06;2090346;28;20104;-89
2021/10/22 01:50:59;;;;;;;4.07;0.75;;;;;;;5.52;100.00;92957.59;2094056;28;20016;-90
2021/10/22 01:52:00;;;;;;;2.25;0.70;;;;;;;5.43;100.00;92967.88;2106723;28;20403;-88
2021/10/22 01:53:02;;;;;;;2.22;0.80;;;;;;;5.44;100.00;92968.63;2114983;28;20469;-90
2021/10/22 01:54:03;;;;;;;1.33;0.90;;;;;;;5.39;100.00;92969.03;2106579;28;20054;-87
2021/10/22 01:55:05;;;;;;;0.60;0.60;;;;;;;5.33;100.00;92968.69;2098229;28;20021;-86
2021/10/22 01:56:06;;;;;;;1.63;0.80;;;;;;;5.44;100.00;92961.41;2097669;28;20486;-87
2021/10/22 01:57:07;;;;;;;2.00;0.80;;;;;;;5.34;100.00;92962.22;2094788;28;20135;-87
2021/10/22 01:58:08;;;;;;;1.38;0.75;;;;;;;5.40;100.00;92960.72;2089953;28;20028;-87
2021/10/22 01:59:09;;;;;;;1.23;0.80;;;;;;;5.38;100.00;92964.88;2093604;28;20451;-89
2021/10/22 02:00:10;;;;;;;1.08;0.80;;;;;;;5.39;100.00;92969.78;2098230;28;20021;-91
2021/10/22 02:01:12;;;;;;;1.95;0.90;;;;;;;5.41;100.00;92962.22;2097778;28;20369;-89
2021/10/22 02:02:14;;;;;;;5.53;1.00;;;;;;;5.47;100.00;92968.59;2106862;28;20024;-89
2021/10/22 02:03:15;;;;;;;1.58;0.73;;;;;;;5.35;100.00;92971.69;2106400;28;20063;-88
2021/10/22 02:04:18;;;;;;;1.15;0.75;;;;;;;5.39;100.00;92975.09;2107457;28;20031;-89
2021/10/22 02:05:19;;;;;;;1.23;0.75;;;;;;;5.39;100.00;92971.69;2102219;28;20573;-89
2021/10/22 02:08:09;;;;;;;;;;;;;;;5.58;100.00;92979.19;2149161;27;20542;-88
2021/10/22 02:09:10;;;;;;;1.40;0.57;;;;;;;5.52;100.00;92973.50;2138228;27;19911;-86
2021/10/22 02:10:11;;;;;;;1.40;0.70;;;;;;;5.44;100.00;92979.97;2129051;27;20014;-85
2021/10/22 02:11:12;;;;;;;0.70;0.60;;;;;;;5.50;100.00;92973.16;2123548;27;20491;-88
2021/10/22 02:12:13;;;;;;;0.85;0.50;;;;;;;5.47;100.00;92973.16;2122254;27;20023;-88
2021/10/22 02:13:14;;;;;;;0.55;0.50;;;;;;;5.52;100.00;92970.84;2130463;27;20905;-84
2021/10/22 02:14:15;;;;;;;0.77;0.57;;;;;;;5.39;100.00;92976.97;2122151;27;20028;-83
2021/10/22 02:15:16;;;;;;;1.08;0.57;;;;;;;5.35;100.00;92971.69;2113655;27;20024;-86
2021/10/22 02:16:17;;;;;;;1.73;0.70;;;;;;;5.44;100.00;92977.31;2122287;27;20047;-86
2021/10/22 02:17:18;;;;;;;0.80;0.60;;;;;;;5.40;100.00;92978.47;2130189;27;20481;-85
2021/10/22 02:18:19;;;;;;;1.73;0.68;;;;;;;5.34;100.00;92986.09;2122125;27;20046;-82
2021/10/22 02:19:20;;;;;;;0.50;0.50;;;;;;;5.42;100.00;92978.88;2121887;27;20020;-84
2021/10/22 02:20:21;;;;;;;0.57;0.50;;;;;;;5.47;100.00;92976.56;2130782;27;20102;-87
2021/10/22 02:21:22;;;;;;;1.23;0.60;;;;;;;5.40;100.00;92975.84;2130855;27;20015;-84
2021/10/22 02:22:24;;;;;;;1.10;0.50;;;;;;;5.67;100.00;92978.75;2141928;27;20065;-81
2021/10/22 02:23:25;;;;;;;1.85;0.50;;;;;;;5.65;100.00;92973.81;2139563;27;20019;-84
2021/10/22 02:24:26;;;;;;;0.47;0.47;;;;;;;5.49;100.00;92978.84;2123561;27;20437;-83
2021/10/22 02:25:27;;;;;;;0.82;0.40;;;;;;;5.52;100.00;92970.09;2121966;27;20034;-84
2021/10/22 02:26:28;;;;;;;0.85;0.60;;;;;;;5.42;100.00;92978.88;2123416;27;20019;-89
2021/10/22 02:27:29;;;;;;;1.40;0.60;;;;;;;5.51;100.00;92979.94;2122385;27;20029;-84
2021/10/22 02:28:30;;;;;;;1.02;0.40;;;;;;;5.49;100.00;92984.16;2123051;28;20023;-82
2021/10/22 02:29:31;;;;;;;0.40;0.40;;;;;;;5.40;100.00;92984.56;2116254;27;20023;-86
2021/10/22 02:30:32;;;;;;;1.05;0.40;;;;;;;5.42;100.00;92981.53;2131016;27;20022;-81
2021/10/22 02:31:33;;;;;;;0.30;0.30;;;;;;;5.41;100.00;92980.00;2130308;27;20027;-90
2021/10/22 02:32:34;;;;;;;1.52;0.50;;;;;;;5.42;100.00;92982.28;2113526;27;20516;-83
2021/10/22 02:33:35;;;;;;;0.50;0.50;;;;;;;5.40;100.00;92983.78;2113012;28;20019;-83
2021/10/22 02:34:36;;;;;;;1.13;0.68;;;;;;;5.40;100.00;92979.25;2122213;27;20527;-85
2021/10/22 02:35:38;;;;;;;0.95;0.40;;;;;;;5.39;100.00;92983.03;2130393;27;20587;-84
2021/10/22 02:36:39;;;;;;;0.70;0.40;;;;;;;5.37;100.00;92987.97;2130591;27;20459;-84
2021/10/22 02:37:42;;;;;;;0.82;0.50;;;;;;;5.40;100.00;92984.56;2121811;28;20027;-84
2021/10/22 02:38:44;;;;;;;1.25;0.47;;;;;;;5.35;100.00;92990.25;2122346;27;20114;-88
2021/10/22 02:39:45;;;;;;;0.45;0.40;;;;;;;5.34;100.00;92986.09;2122191;27;20471;-85
2021/10/22 02:40:46;;;;;;;1.15;0.47;;;;;;;5.32;100.00;92984.97;2130491;27;20033;-86
2021/10/22 02:41:47;;;;;;;0.80;0.47;;;;;;;5.39;100.00;92990.22;2138985;27;20108;-86
2021/10/22 02:42:47;;;;;;;0.52;0.40;;;;;;;5.36;100.00;92993.66;2122008;27;20039;-84
2021/10/22 02:43:48;;;;;;;0.30;0.30;;;;;;;5.48;100.00;92993.22;2121870;27;20054;-86
2021/10/22 02:44:49;;;;;;;0.30;0.30;;;;;;;5.33;100.00;92995.19;2121690;28;20026;-86
2021/10/22 02:45:51;;;;;;;1.20;0.38;;;;;;;5.20;100.00;93000.16;2121852;28;20026;-86
2021/10/22 02:46:51;;;;;;;1.30;0.60;;;;;;;5.21;100.00;93008.84;2121822;27;20059;-84
2021/10/22 02:47:52;;;;;;;0.50;0.50;;;;;;;5.21;100.00;93004.31;2113323;28;20030;-86
2021/10/22 02:48:53;;;;;;;0.93;0.40;;;;;;;5.24;100.00;93000.13;2113114;28;20059;-86
2021/10/22 02:49:54;;;;;;;1.17;0.40;;;;;;;5.27;100.00;93002.03;2113436;27;20388;-84
2021/10/22 02:50:56;;;;;;;0.32;0.32;;;;;;;5.25;100.00;93004.28;2121638;28;20023;-88
2021/10/22 02:51:57;;;;;;;2.38;0.60;;;;;;;5.30;100.00;92995.94;2113331;28;20070;-87
2021/10/22 02:53:03;;;;;;;1.73;0.60;;;;;;;5.41;100.00;92999.31;2113298;28;20115;-85
2021/10/22 02:54:04;;;;;;;0.82;0.68;;;;;;;5.41;100.00;93001.22;2113676;28;20020;-85
2021/10/22 02:55:05;;;;;;;1.75;0.50;;;;;;;5.33;100.00;93002.38;2121588;28;20015;-87
2021/10/22 02:56:06;;;;;;;1.10;0.40;;;;;;;5.41;100.00;93004.63;2113641;27;20027;-89
2021/10/22 02:57:07;;;;;;;0.75;0.40;;;;;;;5.32;100.00;92996.34;2130252;27;20071;-88
2021/10/22 02:58:08;;;;;;;0.55;0.45;;;;;;;5.29;100.00;93005.03;2118462;27;20486;-83
2021/10/22 02:59:09;;;;;;;1.05;0.80;;;;;;;5.24;100.00;92992.19;2121914;27;20050;-85
2021/10/22 03:00:11;;;;;;;2.03;0.32;;;;;;;5.28;100.00;92996.34;2139541;27;20050;-85
2021/10/22 03:01:12;;;;;;;1.63;0.40;;;;;;;5.30;100.00;93002.00;2113139;28;20031;-85
2021/10/22 03:02:13;;;;;;;0.40;0.40;;;;;;;5.20;100.00;92994.09;2104952;28;20520;-83
2021/10/22 03:03:14;;;;;;;0.70;0.50;;;;;;;5.18;100.00;92991.84;2113042;28;20015;-85
2021/10/22 03:04:15;;;;;;;1.27;0.63;;;;;;;5.36;100.00;92996.31;2104979;28;20028;-89
2021/10/22 03:05:16;;;;;;;2.53;0.60;;;;;;;5.06;100.00;93005.50;2104509;28;20024;-83
2021/10/22 03:06:17;;;;;;;2.20;1.45;;;;;;;5.17;100.00;93003.56;2113144;28;20023;-87
2021/10/22 03:07:20;;;;;;;2.47;0.70;;;;;;;5.40;100.00;92991.72;2104485;28;20024;-84
2021/10/22 03:08:21;;;;;;;1.20;0.82;;;;;;;5.25;100.00;92999.00;2096833;28;20025;-86
2021/10/22 03:09:22;;;;;;;1.75;0.77;;;;;;;5.10;100.00;93002.84;2113761;27;20392;-88
2021/10/22 03:10:24;;;;;;;1.75;0.73;;;;;;;5.01;100.00;93003.25;2121088;28;20039;-82
2021/10/22 03:11:26;;;;;;;1.00;0.80;;;;;;;4.99;100.00;93000.22;2121879;27;20019;-87
2021/10/22 03:12:27;;;;;;;4.68;0.80;;;;;;;4.95;100.00;93004.75;2129414;27;20027;-87
2021/10/22 03:13:28;;;;;;;1.13;0.98;;;;;;;4.94;100.00;92998.72;2113487;28;20492;-82
2021/10/22 03:14:29;;;;;;;4.50;0.70;;;;;;;4.89;100.00;93006.28;2112208;28;20473;-84
2021/10/22 03:15:30;;;;;;;0.88;0.85;;;;;;;4.93;100.00;92999.09;2113085;28;20020;-87
2021/10/22 03:16:31;;;;;;;1.05;0.70;;;;;;;4.95;100.00;93002.09;2112092;27;20426;-91
2021/10/22 03:17:32;;;;;;;1.27;0.75;;;;;;;4.94;100.00;93009.31;2121555;27;20011;-84
2021/10/22 03:18:33;;;;;;;0.60;0.60;;;;;;;4.97;100.00;93003.25;2122807;27;20027;-87
2021/10/22 03:19:34;;;;;;;0.80;0.80;;;;;;;4.90;100.00;93005.91;2124129;27;20058;-87
2021/10/22 03:20:35;;;;;;;0.85;0.75;;;;;;;4.96;100.00;93004.41;2122665;27;20027;-85
2021/10/22 03:21:41;;;;;;;0.88;0.88;;;;;;;4.90;100.00;93015.75;2116038;28;20090;-86
2021/10/22 03:22:42;;;;;;;2.42;0.70;;;;;;;5.00;100.00;93010.44;2107352;28;20028;-88
2021/10/22 03:23:43;;;;;;;1.40;0.80;;;;;;;5.03;100.00;93011.56;2107666;28;20059;-87
2021/10/22 03:24:44;;;;;;;2.38;0.93;;;;;;;4.98;100.00;93017.25;2107229;28;20051;-84
2021/10/22 03:25:45;;;;;;;1.27;0.90;;;;;;;4.97;100.00;93023.69;2106190;28;20027;-87
2021/10/22 03:26:46;;;;;;;2.17;0.75;;;;;;;4.97;100.00;93031.63;2114470;28;20377;-87
2021/10/22 03:27:48;;;;;;;2.08;0.80;;;;;;;4.95;100.00;93024.06;2107265;28;20472;-85
2021/10/22 03:28:49;;;;;;;1.45;1.10;;;;;;;4.95;100.00;93016.09;2107502;28;20505;-86
2021/10/22 03:29:50;;;;;;;5.30;1.20;;;;;;;5.03;100.00;93022.16;2107038;28;20106;-84
2021/10/22 03:30:51;;;;;;;0.90;0.85;;;;;;;4.99;100.00;93018.75;2106844;28;20020;-84
2021/10/22 03:31:52;;;;;;;3.20;1.27;;;;;;;4.96;100.00;93022.94;2107693;28;20016;-88
2021/10/22 03:32:53;;;;;;;3.47;0.90;;;;;;;4.97;100.00;93023.69;2115732;28;20481;-87
2021/10/22 03:33:54;;;;;;;1.05;0.90;;;;;;;5.05;100.00;93017.25;2125826;27;20031;-84
2021/10/22 03:34:55;;;;;;;1.10;1.00;;;;;;;4.94;100.00;93019.91;2120231;28;20029;-82
2021/10/22 03:35:56;;;;;;;1.33;1.00;;;;;;;4.90;100.00;93018.41;2112060;28;20408;-81
2021/10/22 03:36:57;;;;;;;2.38;1.40;;;;;;;4.92;100.00;93027.47;2108197;28;20028;-83
2021/10/22 03:37:59;;;;;;;3.13;1.50;;;;;;;4.97;100.00;93024.44;2124563;27;20026;-85
2021/10/22 03:39:01;;;;;;;2.50;1.40;;;;;;;4.95;100.00;93021.41;2123621;27;20069;-85
2021/10/22 03:40:03;;;;;;;2.88;1.50;;;;;;;4.93;100.00;93022.94;2107571;28;20020;-85
2021/10/22 03:41:04;;;;;;;1.70;1.23;;;;;;;4.90;100.00;93019.16;2107293;27;20028;-89
2021/10/22 03:42:05;;;;;;;3.65;1.27;;;;;;;4.87;100.00;93022.56;2107231;28;20052;-85
2021/10/22 03:43:06;;;;;;;1.45;1.10;;;;;;;4.88;100.00;93015.38;2107281;28;20074;-88
2021/10/22 03:44:07;;;;;;;1.17;1.10;;;;;;;4.83;100.00;93018.41;2115790;28;20069;-85
2021/10/22 03:45:09;;;;;;;2.50;1.30;;;;;;;4.73;100.00;93010.09;2123407;27;20558;-86
2021/10/22 03:46:10;;;;;;;1.17;1.17;;;;;;;4.77;100.00;93016.13;2124308;27;20067;-85
2021/10/22 03:47:12;;;;;;;1.83;1.67;;;;;;;4.74;100.00;93019.56;2115495;28;20030;-86
2021/10/22 03:48:13;;;;;;;1.40;1.23;;;;;;;4.87;100.00;93019.91;2107115;28;20028;-84
2021/10/22 03:49:14;;;;;;;1.67;1.30;;;;;;;4.86;100.00;93017.66;2107357;28;20491;-85
2021/10/22 03:50:17;;;;;;;2.58;1.63;;;;;;;4.78;100.00;93025.63;2107328;28;20110;-82
2021/10/22 03:51:21;;;;;;;1.27;1.25;;;;;;;4.73;100.00;93019.94;2114148;28;20030;-89
2021/10/22 03:52:22;;;;;;;2.10;1.40;;;;;;;4.75;100.00;93020.31;2107254;28;20020;-88
2021/10/22 03:53:24;;;;;;;1.65;1.45;;;;;;;4.79;100.00;93026.38;2105921;27;20419;-82
2021/10/22 03:54:24;;;;;;;1.55;1.40;;;;;;;4.79;100.00;93029.03;2115595;28;20094;-85
2021/10/22 03:55:25;;;;;;;2.15;1.40;;;;;;;4.71;100.00;93022.97;2107072;28;20059;-89
2021/10/22 03:56:26;;;;;;;2.83;1.58;;;;;;;4.77;100.00;93025.97;2109209;28;20102;-86
2021/10/22 03:57:27;;;;;;;2.78;1.40;;;;;;;4.75;100.00;93030.91;2105335;28;20426;-86
2021/10/22 03:58:28;;;;;;;3.42;1.90;;;;;;;4.64;100.00;93027.50;2107183;28;20048;-86
2021/10/22 03:59:30;;;;;;;1.83;1.65;;;;;;;4.67;100.00;93032.81;2115386;27;20020;-88
2021/10/22 04:00:30;;;;;;;3.13;1.83;;;;;;;4.54;100.00;93037.72;2124213;27;20167;-88
2021/10/22 04:01:31;;;;;;;2.17;1.73;;;;;;;4.58;100.00;93040.38;2115556;27;20023;-87
2021/10/22 04:02:33;;;;;;;3.33;1.55;;;;;;;4.58;100.00;93036.97;2115735;28;20019;-85
2021/10/22 04:03:34;;;;;;;2.17;1.85;;;;;;;4.55;100.00;93038.47;2099079;28;20024;-89
2021/10/22 04:04:41;;;;;;;2.22;2.00;;;;;;;4.64;100.00;93038.84;2115572;28;20500;-89
2021/10/22 04:05:44;;;;;;;1.80;1.70;;;;;;;4.60;100.00;93035.44;2114700;28;20106;-87
2021/10/22 04:06:44;;;;;;;2.15;1.83;;;;;;;4.71;100.00;93046.03;2115946;27;20027;-84
2021/10/22 04:07:45;;;;;;;2.22;1.83;;;;;;;4.68;100.00;93041.50;2114929;28;20130;-85
2021/10/22 04:08:49;;;;;;;1.92;1.70;;;;;;;4.72;100.00;93047.56;2115940;27;20020;-87
2021/10/22 04:09:50;;;;;;;3.33;2.15;;;;;;;4.78;100.00;93046.81;2115375;28;20078;-87
2021/10/22 04:10:51;;;;;;;1.90;1.80;;;;;;;4.80;100.00;93049.81;2098982;28;20031;-83
2021/10/22 04:11:54;;;;;;;4.28;2.42;;;;;;;4.85;100.00;93045.28;2100453;28;20078;-87
2021/10/22 04:12:55;;;;;;;3.50;2.05;;;;;;;4.73;100.00;93041.88;2106359;27;20024;-82
2021/10/22 04:13:56;;;;;;;4.80;2.30;;;;;;;4.73;100.00;93043.75;2120774;27;20024;-84
2021/10/22 04:14:57;;;;;;;4.85;2.17;;;;;;;4.79;100.00;93036.97;2114417;28;20031;-89
2021/10/22 04:15:58;;;;;;;3.28;2.25;;;;;;;4.87;100.00;93040.34;2098730;28;20028;-88
2021/10/22 04:16:59;;;;;;;3.80;2.35;;;;;;;4.84;100.00;93046.41;2108756;28;20035;-85
2021/10/22 04:18:00;;;;;;;4.03;1.92;;;;;;;4.96;100.00;93032.75;2126742;27;20065;-82
2021/10/22 04:19:01;;;;;;;3.45;2.42;;;;;;;5.05;100.00;93038.44;2124903;27;20482;-84
2021/10/22 04:20:02;;;;;;;5.22;2.45;;;;;;;5.03;100.00;93038.78;2118381;27;20039;-82
2021/10/22 04:21:04;;;;;;;3.55;2.17;;;;;;;5.10;100.00;93042.59;2119775;27;20082;-86
2021/10/22 04:22:04;;;;;;;2.67;2.28;;;;;;;4.94;100.00;93042.97;2123428;27;20030;-83
2021/10/22 04:23:05;;;;;;;3.67;2.25;;;;;;;4.91;100.00;93041.09;2106848;28;20024;-86
2021/10/22 04:24:06;;;;;;;4.45;2.40;;;;;;;4.90;100.00;93044.88;2107039;28;20027;-86
2021/10/22 04:25:08;;;;;;;2.70;2.50;;;;;;;5.00;100.00;93044.88;2123940;27;20467;-83
2021/10/22 04:26:09;;;;;;;4.63;2.72;;;;;;;5.09;100.00;93041.81;2123598;27;20023;-84
2021/10/22 04:27:10;;;;;;;3.92;2.50;;;;;;;5.02;100.00;93042.59;2115427;28;20019;-85
2021/10/22 04:28:12;;;;;;;2.53;2.33;;;;;;;5.09;100.00;93041.81;2107070;28;20024;-84
2021/10/22 04:29:13;;;;;;;4.45;2.90;;;;;;;4.89;100.00;93038.84;2098813;28;20035;-86
2021/10/22 04:30:14;;;;;;;5.88;3.40;;;;;;;4.90;100.00;93045.63;2107036;28;20843;-89
2021/10/22 04:31:15;;;;;;;4.40;3.17;;;;;;;4.93;100.00;93055.47;2106169;28;20074;-88
2021/10/22 04:32:17;;;;;;;4.75;3.20;;;;;;;4.93;100.00;93046.78;2106677;28;20031;-86
2021/10/22 04:33:18;;;;;;;3.45;2.65;;;;;;;4.95;100.00;93058.47;2106949;28;20024;-87
2021/10/22 04:34:19;;;;;;;4.07;2.58;;;;;;;4.99;100.00;93047.88;2106648;28;20048;-84
2021/10/22 04:35:20;;;;;;;4.00;3.53;;;;;;;4.90;100.00;93050.94;2115308;28;20472;-85
2021/10/22 04:36:21;;;;;;;6.55;4.18;;;;;;;4.82;100.00;93053.97;2128671;27;20049;-82
2021/10/22 04:37:24;;;;;;;5.22;3.53;;;;;;;4.78;100.00;93049.44;2123745;27;20022;-82
2021/10/22 04:41:04;;;;;;;6.15;3.92;;;;;;;4.91;100.00;93060.38;2115494;28;20023;-85
2021/10/22 04:42:05;;;;;;;5.53;3.95;;;;;;;4.99;100.00;93061.88;2107024;28;20430;-85
2021/10/22 04:43:09;;;;;;;4.43;4.03;;;;;;;4.98;100.00;93065.69;2098433;28;20107;-86
2021/10/22 04:44:10;;;;;;;4.53;4.15;;;;;;;5.00;100.00;93060.78;2100497;28;20431;-85
2021/10/22 04:45:11;;;;;;;4.47;4.00;;;;;;;5.05;100.00;93054.31;2106848;28;20560;-88
2021/10/22 04:46:12;;;;;;;8.00;4.40;;;;;;;5.06;100.00;93058.47;2107121;28;20069;-86
2021/10/22 04:47:13;;;;;;;5.30;4.43;;;;;;;4.96;100.00;93054.72;2115239;28;20572;-85
2021/10/22 04:48:14;;;;;;;5.05;4.57;;;;;;;4.90;100.00;93055.47;2117479;27;20929;-85
2021/10/22 04:49:16;;;;;;;4.78;4.45;;;;;;;4.94;100.00;93058.88;2123809;27;20034;-84
2021/10/22 04:50:17;;;;;;;4.60;4.20;;;;;;;4.98;100.00;93063.03;2106875;28;20111;-89
2021/10/22 04:51:18;;;;;;;6.63;4.75;;;;;;;5.13;100.00;93063.75;2106591;28;20060;-86
2021/10/22 04:52:19;;;;;;;5.15;4.18;;;;;;;5.01;100.00;93061.53;2108286;28;20024;-85
2021/10/22 04:53:28;;;;;;;5.53;4.97;;;;;;;4.87;100.00;93064.91;2106810;28;20024;-84
2021/10/22 04:54:29;;;;;;;4.90;4.60;;;;;;;4.89;100.00;93061.91;2100584;28;20020;-90